Sedgwick Reserve, California Weather observations

Data are for 10 minute period ending at time listed.
 Day   Time   Solar   Ave.   Ave.  Ave.  Vector  Max.   Baro.   Total    
  of    of     Rad.   Air    Rel.  Wind   Wind   Wind  Press.  Precip.   
Year   Day            Temp.  Hum.  Speed  Dir.   Gust                    
2017   (PST)  Kw/m2    F      %     mph   deg.    mph    mb.     in.     
-------------------------------------------------------------------------
 321   18:40   0.00   52.3    86    1.6    17     3.5   977.3    0.00 
 321   18:50   0.00   51.7    86    1.9   355     3.1   977.3    0.00 
 321   19:00   0.00   50.8    87    0.8   342     2.3   977.5    0.00 
 321   19:10   0.00   49.9    88    0.4     5     2.0   977.6    0.00 
 321   19:20   0.00   49.1    89    1.3     7     4.3   977.8    0.00 
 321   19:30   0.00   47.3    90    4.9   357     6.0   977.9    0.00 
 321   19:40   0.00   47.4    92    4.0     3     5.8   977.9    0.00 
 321   19:50   0.00   47.0    91    3.2   349     5.8   978.0    0.00 
 321   20:00   0.00   46.6    92    1.5     2     3.4   978.0    0.00 
 321   20:10   0.00   46.2    92    0.9   355     4.1   978.0    0.00 
 321   20:20   0.00   45.5    92    1.5   358     4.0   978.0    0.00 
 321   20:30   0.00   45.8    93    1.4   284     2.4   978.1    0.00 
 321   20:40   0.00   45.5    94    2.5   358     5.9   978.1    0.00 
 321   20:50   0.00   44.1    94    4.7   355     6.6   978.2    0.00 
 321   21:00   0.00   44.8    95    3.5   340     5.4   978.2    0.00 
 321   21:10   0.00   44.8    94    1.6   346     4.6   978.2    0.00 
 321   21:20   0.00   44.2    95    0.1   234     0.7   978.2    0.00 
 321   21:30   0.00   44.4    95    0.1   204     0.7   978.3    0.00 
 321   21:40   0.00   43.9    95    0.1   351     1.6   978.3    0.00 
 321   21:50   0.00   43.4    95    1.4   329     2.6   978.4    0.00 
 321   22:00   0.00   44.0    96    0.4   276     1.4   978.4    0.00 
 321   22:10   0.00   44.1    95    0.2    32     1.2   978.4    0.00 
 321   22:20   0.00   43.2    96    0.5   205     1.6   978.5    0.00 
 321   22:30   0.00   43.0    96    0.2   185     1.3   978.6    0.00 
 321   22:40   0.00   42.6    96    0.9   240     2.0   978.6    0.00 
 321   22:50   0.00   42.5    96    0.4    10     2.1   978.6    0.00 
 321   23:00   0.00   42.9    96    2.2   351     4.2   978.6    0.00 
 321   23:10   0.00   43.1    97    1.5   338     4.5   978.6    0.00 
 321   23:20   0.00   43.3    97    0.2   350     2.8   978.6    0.00 
 321   23:30   0.00   42.8    96    0.1   293     0.8   978.7    0.00 
 321   23:40   0.00   42.9    97    1.9   352     5.3   978.7    0.00 
 321   23:50   0.00   43.0    97    1.9   341     5.7   978.8    0.00 
 322    0:00   0.00   43.5    97    0.8   341     2.5   978.7    0.00 
 322    0:10   0.00   43.4    97    0.4    27     1.5   978.6    0.00 
 322    0:20   0.00   43.3    97    0.8   319     2.4   978.7    0.00 
 322    0:30   0.00   42.8    97    0.5   352     2.0   978.6    0.00 
 322    0:40   0.00   42.1    97    4.1   350     6.1   978.5    0.00 
 322    0:50   0.00   42.8    98    1.0   336     3.4   978.4    0.00 
 322    1:00   0.00   42.8    97    0.2   242     1.1   978.3    0.00 
 322    1:10   0.00   42.6    97    0.4   266     2.3   978.3    0.00 
 322    1:20   0.00   42.4    97    0.3   255     1.5   978.4    0.00 
 322    1:30   0.00   41.9    97    0.3     8     2.2   978.4    0.00 
 322    1:40   0.00   41.4    98    2.4   326     4.3   978.4    0.00 
 322    1:50   0.00   41.9    98    0.7   224     1.9   978.4    0.00 
 322    2:00   0.00   41.2    97    0.4   246     2.0   978.3    0.00 
 322    2:10   0.00   41.1    98    1.7   312     3.1   978.4    0.00 
 322    2:20   0.00   41.9    98    1.2   271     3.5   978.4    0.00 
 322    2:30   0.00   40.7    97    0.9     7     3.1   978.5    0.00 
 322    2:40   0.00   40.6    98    0.7     1     3.2   978.6    0.00 
 322    2:50   0.00   40.7    98    0.3   282     1.5   978.5    0.00 
 322    3:00   0.00   40.3    97    0.2   260     1.1   978.5    0.00 
 322    3:10   0.00   40.3    97    0.9   349     3.4   978.5    0.00 
 322    3:20   0.00   40.7    98    0.7   301     2.0   978.6    0.00 
 322    3:30   0.00   41.1    98    0.2   251     1.4   978.6    0.00 
 322    3:40   0.00   40.7    97    1.7   264     2.7   978.5    0.00 
 322    3:50   0.00   40.1    97    0.6    10     2.3   978.5    0.00 
 322    4:00   0.00   40.2    98    0.5   348     2.3   978.5    0.00 
 322    4:10   0.00   40.4    97    0.4   156     1.4   978.3    0.00 
 322    4:20   0.00   40.1    97    0.8   253     3.4   978.3    0.00 
 322    4:30   0.00   40.2    97    0.4   283     1.9   978.4    0.00 
 322    4:40   0.00   40.0    97    0.7   325     2.2   978.4    0.00 
 322    4:50   0.00   39.9    97    0.2   340     2.0   978.4    0.00 
 322    5:00   0.00   39.9    97    1.2   335     4.2   978.4    0.00 
 322    5:10   0.00   40.6    96    1.0   358     3.4   978.5    0.00 
 322    5:20   0.00   40.3    94    1.2   283     4.3   978.6    0.00 
 322    5:30   0.00   40.6    94    0.5   270     2.3   978.8    0.00 
 322    5:40   0.00   39.7    94    0.1   218     0.8   978.9    0.00 
 322    5:50   0.00   39.4    94    1.1   255     1.9   979.2    0.00 
 322    6:00   0.00   39.6    93    1.7   318     3.7   979.5    0.00 
 322    6:10   0.00   39.5    93    0.9    23     2.6   979.6    0.00 
 322    6:20   0.00   39.8    91    0.1   223     0.9   979.9    0.00 
 322    6:30   0.00   39.4    91    0.7   280     2.6   980.0    0.00 
 322    6:40   0.00   40.2    90    0.2   352     1.4   980.0    0.00 
 322    6:50   0.01   40.3    88    0.2    50     1.9   979.9    0.00 
 322    7:00   0.07   40.1    89    0.7   236     1.6   979.9    0.00 
 322    7:10   0.12   41.3    88    1.3   124     2.3   979.8    0.00 
 322    7:20   0.15   42.1    86    1.0   211     2.3   979.8    0.00 
 322    7:30   0.18   42.5    86    0.5   354     1.7   979.9    0.00 
 322    7:40   0.22   43.0    86    2.1    27     4.5   980.2    0.00 
 322    7:50   0.25   44.1    86    2.4    10     4.7   980.2    0.00 
 322    8:00   0.28   46.8    80    3.6     8     4.7   979.9    0.00 
 322    8:10   0.31   49.2    76    0.6   276     1.8   979.7    0.00 
 322    8:20   0.34   50.4    74    2.6   269     4.5   979.7    0.00 
 322    8:30   0.36   53.0    69    3.8   295     5.3   979.9    0.00 
 322    8:40   0.40   56.1    64    1.6   266     5.1   980.2    0.00 
 322    8:50   0.43   55.5    58    3.3   240     6.2   980.5    0.00 
 322    9:00   0.45   56.8    53    0.8   193     3.2   980.6    0.00 
 322    9:10   0.47   57.9    53    1.5   205     3.8   980.8    0.00 
 322    9:20   0.49   59.6    53    3.0    28     5.4   980.7    0.00 
 322    9:30   0.52   61.0    49    2.4    14     5.8   980.6    0.00 
 322    9:40   0.54   63.2    39    0.9    67     2.9   980.7    0.00 
 322    9:50   0.55   65.7    42    1.3   182     3.4   980.9    0.00 
 322   10:00   0.57   65.5    46    2.3   198     6.0   980.9    0.00 
 322   10:10   0.58   63.6    52    4.2   225     7.2   980.9    0.00 
 322   10:20   0.59   64.4    50    2.4   225     5.3   980.8    0.00 
 322   10:30   0.61   65.5    48    2.5   193     5.7   980.6    0.00 
 322   10:40   0.62   65.4    48    3.8   208     8.0   980.6    0.00 
 322   10:50   0.62   65.0    49    4.8   228     7.7   980.4    0.00 
 322   11:00   0.63   65.4    48    6.0   220    10.9   980.3    0.00 
 322   11:10   0.60   65.1    49    7.3   225    10.7   980.3    0.00 
 322   11:20   0.64   65.9    48    6.1   215     9.7   980.2    0.00 
 322   11:30   0.64   66.1    47    6.2   196     9.3   980.1    0.00 
 322   11:40   0.64   67.0    45    4.6   211     7.5   980.0    0.00 
 322   11:50   0.63   67.9    44    2.6   103     6.4   979.9    0.00 
 322   12:00   0.63   68.9    41    2.0    28     4.0   979.6    0.00 
 322   12:10   0.62   70.4    40    1.9   212     3.8   979.4    0.00 
 322   12:20   0.61   70.3    40    2.3   237     5.8   979.0    0.00 
 322   12:30   0.60   70.3    41    3.9   181     7.6   978.8    0.00 
 322   12:40   0.59   70.8    39    4.0   187     7.7   978.7    0.00 
 322   12:50   0.58   70.5    40    5.7   210    10.8   978.7    0.00 
 322   13:00   0.56   70.7    40    5.2   232     9.6   978.6    0.00 
 322   13:10   0.55   71.8    38    4.4   205     9.0   978.5    0.00 
 322   13:20   0.53   71.9    38    5.8   214     9.4   978.3    0.00 
 322   13:30   0.50   71.6    37    5.1   202     9.4   978.2    0.00 
 322   13:40   0.49   71.5    37    6.6   223    11.2   978.2    0.00 
 322   13:50   0.47   71.3    38    6.9   228    11.4   978.2    0.00 
 322   14:00   0.45   71.2    38    7.1   235    12.4   978.1    0.00 
 322   14:10   0.42   70.9    37    6.4   242    10.2   978.2    0.00 
 322   14:20   0.39   71.7    36    5.6   239     9.9   978.2    0.00 
 322   14:30   0.36   72.3    35    3.8   240     8.0   978.1    0.00 
 322   14:40   0.34   72.2    36    6.2   221     9.6   978.1    0.00 
 322   14:50   0.29   71.4    36    7.3   216    10.5   978.1    0.00 
 322   15:00   0.26   71.0    36    6.3   215     9.6   978.0    0.00 
 322   15:10   0.26   71.4    35    6.8   249    12.3   978.1    0.00 
 322   15:20   0.23   70.9    36    6.5   249     9.9   978.0    0.00 
 322   15:30   0.20   71.0    36    6.7   231    11.4   978.1    0.00 
 322   15:40   0.17   70.7    38    6.8   260    10.2   978.1    0.00 
 322   15:50   0.14   70.0    39    6.2   265     9.6   978.0    0.00 
 322   16:00   0.10   69.3    42    6.8   279    11.2   978.0    0.00 
 322   16:10   0.07   68.7    44    5.8   287     9.4   978.0    0.00 
 322   16:20   0.04   68.0    46    5.5   298     9.2   977.9    0.00 
 322   16:30   0.02   66.7    48    4.5   285     7.1   978.0    0.00 
 322   16:40   0.01   65.1    51    4.1   288     7.8   978.0    0.00 
 322   16:50   0.01   64.1    54    4.5   302     7.2   978.0    0.00 
 322   17:00   0.00   63.1    55    2.5   304     5.3   978.1    0.00 
 322   17:10   0.00   62.0    58    2.1   336     3.5   978.1    0.00 
 322   17:20   0.00   61.0    59    2.4   307     3.8   978.2    0.00 
 322   17:30   0.00   60.2    61    1.7   297     2.7   978.3    0.00 
 322   17:40   0.00   59.2    62    1.8   348     3.2   978.3    0.00 
 322   17:50   0.00   58.2    64    2.2   332     4.2   978.3    0.00 
 322   18:00   0.00   56.9    65    1.6   280     3.1   978.2    0.00 
 322   18:10   0.00   54.7    68    1.5     2     2.6   978.1    0.00 
 322   18:20   0.00   53.8    70    0.6   346     1.9   978.0    0.00 
 322   18:30   0.00   52.1    72    0.2    45     1.2   978.1    0.00 

Return to Sedgwick Reserve graphs page.


Western Regional Climate Center,wrcc@dri.edu